createdAt,value
2022-09-01T02:47:45.546Z,99.90
2022-09-01T02:50:16.953Z,99.90
2022-09-01T02:52:45.029Z,99.90
2022-09-01T02:55:11.933Z,99.90
2022-09-01T02:57:38.637Z,99.90
2022-09-01T03:00:20.540Z,99.90
2022-09-01T03:02:52.028Z,99.90
2022-09-01T03:05:25.281Z,99.90
2022-09-01T03:07:54.541Z,99.90
2022-09-01T03:10:21.924Z,99.90
2022-09-01T03:12:51.166Z,99.90
2022-09-01T03:15:17.758Z,99.90
2022-09-01T03:17:45.682Z,99.90
2022-09-01T03:20:12.300Z,99.90
2022-09-01T03:22:38.974Z,99.90
2022-09-01T03:25:05.902Z,99.90
2022-09-01T03:27:33.375Z,99.90
2022-09-01T03:30:00.561Z,99.90
2022-09-01T03:32:27.196Z,99.90
2022-09-01T03:34:54.563Z,99.90
2022-09-01T03:37:23.191Z,99.90
2022-09-01T03:39:52.465Z,99.90
2022-09-01T03:42:25.846Z,99.90
2022-09-01T03:44:53.291Z,99.90
2022-09-01T03:47:21.108Z,99.90
2022-09-01T03:49:50.066Z,99.90
2022-09-01T03:52:17.566Z,99.90
2022-09-01T03:54:45.277Z,99.90
2022-09-01T03:57:12.076Z,99.90
2022-09-01T03:59:44.853Z,99.90
2022-09-01T04:02:13.050Z,99.90
2022-09-01T04:04:39.777Z,99.90
2022-09-01T04:07:07.381Z,99.90
2022-09-01T04:09:35.238Z,99.90
2022-09-01T04:12:03.463Z,99.90
2022-09-01T04:14:31.251Z,99.90
2022-09-01T04:17:16.433Z,99.90
2022-09-01T04:19:43.262Z,99.90
2022-09-01T04:22:16.074Z,99.90
2022-09-01T04:24:45.585Z,99.90
2022-09-01T04:27:12.694Z,99.90
2022-09-01T04:29:39.353Z,99.90
2022-09-01T04:32:09.701Z,99.90
2022-09-01T04:34:38.147Z,99.90
2022-09-01T04:37:18.062Z,99.90
2022-09-01T04:39:56.664Z,99.90
2022-09-01T04:42:25.802Z,99.90
2022-09-01T04:44:53.767Z,99.90
2022-09-01T04:47:29.912Z,99.90
2022-09-01T04:50:04.263Z,99.90
2022-09-01T04:52:31.897Z,99.90
2022-09-01T04:54:58.636Z,99.90
2022-09-01T04:57:27.529Z,99.90
2022-09-01T04:59:56.699Z,99.90
2022-09-01T05:02:27.109Z,99.90
2022-09-01T05:04:54.152Z,99.90
2022-09-01T05:07:21.409Z,99.90
2022-09-01T05:09:48.035Z,99.90
2022-09-01T05:12:15.820Z,99.90
2022-09-01T05:14:45.076Z,99.90
2022-09-01T05:17:12.020Z,99.90
2022-09-01T05:19:43.166Z,99.90
2022-09-01T05:22:10.247Z,99.90
2022-09-01T05:24:41.930Z,99.90
2022-09-01T05:27:10.210Z,99.90
2022-09-01T05:29:37.929Z,99.90
2022-09-01T05:32:08.794Z,99.90
2022-09-01T05:34:37.449Z,99.90
2022-09-01T05:37:06.349Z,99.90
2022-09-01T05:39:33.119Z,99.90
2022-09-01T05:42:00.938Z,99.90
2022-09-01T05:44:27.598Z,99.90
2022-09-01T05:46:55.735Z,99.90
2022-09-01T05:49:22.444Z,99.90
2022-09-01T05:51:51.559Z,99.90
2022-09-01T05:54:19.808Z,99.90
2022-09-01T05:56:47.195Z,99.90
2022-09-01T05:59:23.044Z,99.90
2022-09-01T06:01:50.898Z,99.90
2022-09-01T06:04:17.703Z,99.90
2022-09-01T06:07:06.672Z,99.90
2022-09-01T06:09:38.401Z,99.90
2022-09-01T06:12:06.484Z,99.90
2022-09-01T06:14:33.141Z,99.90
2022-09-01T06:17:00.825Z,99.90
2022-09-01T06:19:27.426Z,99.90
2022-09-01T06:21:54.045Z,99.90
2022-09-01T06:24:20.709Z,99.90
2022-09-01T06:26:47.323Z,99.90
2022-09-01T06:29:16.832Z,99.90
2022-09-01T06:31:45.721Z,99.90
2022-09-01T06:34:17.601Z,99.90
2022-09-01T06:36:45.052Z,99.90
2022-09-01T06:39:19.538Z,99.90
2022-09-01T06:41:48.018Z,99.90
2022-09-01T06:44:16.062Z,99.90
2022-09-01T06:46:42.912Z,99.90
2022-09-01T06:49:11.580Z,99.90
2022-09-01T06:51:38.522Z,99.90
2022-09-01T06:54:11.239Z,99.90
2022-09-01T06:56:44.905Z,99.90
2022-09-01T06:59:34.599Z,99.90
2022-09-01T07:02:04.807Z,99.90
2022-09-01T07:04:51.228Z,99.90
2022-09-01T07:10:18.125Z,99.90
2022-09-01T07:13:08.105Z,99.90
2022-09-01T07:18:31.194Z,99.90
2022-09-01T07:21:09.391Z,99.90
2022-09-01T07:24:07.881Z,99.90
2022-09-01T07:26:31.638Z,99.90
2022-09-01T07:29:01.814Z,99.90
2022-09-01T07:39:52.010Z,99.90
2022-09-01T07:45:26.637Z,99.90
2022-09-01T07:47:54.282Z,99.90
2022-09-01T08:30:52.405Z,99.90
2022-09-01T08:35:48.218Z,98.60
2022-09-01T08:38:14.936Z,91.80
2022-09-01T08:40:41.899Z,88.40
2022-09-01T08:51:20.925Z,82.80
2022-09-01T08:54:12.505Z,62.50
2022-09-01T09:14:45.551Z,60.10
2022-09-01T09:42:54.173Z,54.20
2022-09-01T10:13:18.017Z,52.70
2022-09-01T10:15:49.891Z,50.70
2022-09-01T10:23:31.216Z,49.00
2022-09-01T10:26:05.012Z,48.80
2022-09-01T10:38:24.221Z,49.60
2022-09-01T10:41:07.126Z,53.10
2022-09-01T10:43:40.878Z,53.80
2022-09-01T10:46:25.432Z,53.50
2022-09-01T11:20:46.186Z,53.20
2022-09-01T11:23:25.008Z,53.30
2022-09-01T11:36:37.936Z,52.30
2022-09-01T11:54:14.605Z,45.40
2022-09-01T11:56:41.335Z,53.00
2022-09-01T12:09:20.281Z,53.60
2022-09-01T12:14:20.429Z,54.20
2022-09-01T12:16:56.201Z,54.90
2022-09-01T12:19:24.252Z,55.10
2022-09-01T12:22:07.364Z,55.10
2022-09-01T12:24:35.278Z,54.20
2022-09-01T12:27:01.956Z,54.50
2022-09-01T12:29:32.108Z,52.50
2022-09-01T12:31:59.242Z,51.30
2022-09-01T12:34:32.684Z,49.90
2022-09-01T12:37:22.226Z,46.80
2022-09-01T12:39:57.417Z,46.90
2022-09-01T12:42:29.953Z,48.40
2022-09-01T12:50:05.992Z,49.60
2022-09-01T12:52:36.204Z,53.40
2022-09-01T12:55:03.026Z,54.10
2022-09-01T12:57:34.544Z,54.50
2022-09-01T13:00:23.590Z,54.30
2022-09-01T13:03:05.599Z,55.60
2022-09-01T13:05:41.888Z,53.40
2022-09-01T13:08:14.674Z,52.40
2022-09-01T13:10:49.223Z,51.60
2022-09-01T13:13:16.767Z,49.00
2022-09-01T13:15:54.501Z,47.30
2022-09-01T13:18:22.683Z,46.50
2022-09-01T13:20:50.110Z,45.90
2022-09-01T13:23:17.332Z,45.40
2022-09-01T13:25:46.648Z,44.50
2022-09-01T13:28:13.951Z,46.50
2022-09-01T13:30:40.826Z,48.00
2022-09-01T13:33:23.347Z,49.00
2022-09-01T13:35:51.124Z,50.60
2022-09-01T13:38:18.128Z,51.00
2022-09-01T13:40:46.021Z,49.80
2022-09-01T13:43:15.129Z,48.60
2022-09-01T13:45:42.081Z,47.60
2022-09-01T13:48:16.815Z,47.00
2022-09-01T13:53:31.696Z,43.60
2022-09-01T14:03:21.891Z,42.30
2022-09-01T14:28:01.954Z,42.30
2022-09-01T14:33:03.749Z,45.40
2022-09-01T14:35:33.145Z,47.40
2022-09-01T16:01:56.025Z,48.60
2022-09-01T16:04:27.536Z,47.70
2022-09-01T16:06:56.357Z,47.00
2022-09-01T16:09:23.014Z,46.70
2022-09-01T16:11:49.841Z,46.70
2022-09-01T16:14:16.706Z,47.00
2022-09-01T16:17:05.745Z,46.70
2022-09-01T16:19:53.962Z,46.90
2022-09-01T16:22:36.189Z,47.30
2022-09-01T16:25:17.355Z,47.70
2022-09-01T16:30:13.553Z,48.40
2022-09-01T16:37:45.414Z,50.80
2022-09-01T16:40:29.796Z,52.00
2022-09-01T16:43:05.346Z,52.70
2022-09-01T16:48:19.739Z,52.70
2022-09-01T16:51:06.526Z,53.50
2022-09-01T16:56:42.829Z,54.70
2022-09-01T16:59:34.932Z,55.70
2022-09-01T17:02:20.210Z,56.10
2022-09-01T17:04:48.464Z,56.60
2022-09-01T17:07:36.600Z,57.50
2022-09-01T17:10:19.280Z,57.10
2022-09-01T17:12:50.434Z,57.50
2022-09-01T17:15:19.831Z,57.40
2022-09-01T17:18:23.337Z,57.70
2022-09-01T17:20:57.909Z,58.00
2022-09-01T17:23:29.811Z,58.30
2022-09-01T17:26:12.380Z,58.40
2022-09-01T17:28:44.245Z,58.80
2022-09-01T17:31:18.463Z,59.00
2022-09-01T17:34:02.889Z,59.40
2022-09-01T17:36:29.483Z,59.80
2022-09-01T17:39:05.772Z,59.80
2022-09-01T17:41:40.147Z,59.70
2022-09-01T17:44:21.861Z,60.60
2022-09-01T17:46:55.701Z,60.80
2022-09-01T17:49:48.022Z,61.30
2022-09-01T17:52:42.366Z,61.80
2022-09-01T17:55:20.870Z,61.70
2022-09-01T17:58:04.701Z,62.10
2022-09-01T18:00:39.913Z,62.70
2022-09-01T18:03:09.645Z,63.20
2022-09-01T18:05:48.496Z,63.60
2022-09-01T18:08:21.324Z,64.10
2022-09-01T18:11:00.414Z,64.10
2022-09-01T18:13:53.224Z,64.20
2022-09-01T18:16:23.755Z,64.20
2022-09-01T18:18:51.035Z,64.40
2022-09-01T18:21:24.851Z,64.30
2022-09-01T18:24:14.588Z,64.90
2022-09-01T18:26:43.557Z,65.00
2022-09-01T18:29:10.368Z,65.60
2022-09-01T18:32:11.492Z,65.80
2022-09-01T18:34:44.654Z,66.20
2022-09-01T18:37:14.203Z,66.50
2022-09-01T18:39:52.818Z,66.90
2022-09-01T18:42:23.053Z,67.20
2022-09-01T18:45:08.634Z,67.60
2022-09-01T18:47:40.180Z,68.00
2022-09-01T18:50:13.283Z,68.30
2022-09-01T18:53:04.773Z,68.60
2022-09-01T18:55:55.327Z,68.70
2022-09-01T18:58:31.347Z,69.30
2022-09-01T19:01:07.172Z,69.50
2022-09-01T19:03:48.781Z,69.70
2022-09-01T19:06:41.450Z,69.90
2022-09-01T19:09:14.581Z,70.10
2022-09-01T19:11:50.134Z,70.30
2022-09-01T19:14:28.954Z,70.70
2022-09-01T19:17:14.009Z,71.00
2022-09-01T19:19:59.811Z,71.20
2022-09-01T19:22:55.439Z,71.80
2022-09-01T19:25:36.720Z,72.20
2022-09-01T19:28:28.883Z,72.50
2022-09-01T19:31:13.094Z,72.60
2022-09-01T19:33:45.352Z,73.00
2022-09-01T19:36:16.837Z,73.10
2022-09-01T19:38:44.905Z,73.50
2022-09-01T19:41:37.313Z,73.60
2022-09-01T19:44:20.148Z,73.90
2022-09-01T19:46:49.404Z,74.30
2022-09-01T19:49:57.164Z,74.40
2022-09-01T19:52:39.248Z,74.50
2022-09-01T19:55:17.993Z,74.70
2022-09-01T19:57:56.353Z,74.80
2022-09-01T20:00:35.759Z,75.00
2022-09-01T20:03:08.020Z,75.20
2022-09-01T20:05:45.917Z,75.50
2022-09-01T20:08:20.553Z,75.60
2022-09-01T20:10:57.754Z,76.00
2022-09-01T20:13:53.350Z,76.20
2022-09-01T20:16:45.529Z,76.40
2022-09-01T20:19:14.568Z,76.50
2022-09-01T20:21:43.714Z,76.80
2022-09-01T20:24:31.794Z,76.90
2022-09-01T20:27:22.053Z,77.30
2022-09-01T20:29:49.367Z,77.60
2022-09-01T20:32:22.133Z,77.90
2022-09-01T20:34:52.797Z,78.30
2022-09-01T20:37:24.125Z,78.20
2022-09-01T20:40:02.167Z,79.20
2022-09-01T20:42:33.929Z,80.00
2022-09-01T20:45:22.122Z,80.00
2022-09-01T20:47:58.720Z,80.60
2022-09-01T20:50:56.069Z,81.50
2022-09-01T20:53:40.042Z,82.70
2022-09-01T20:56:13.779Z,83.40
2022-09-01T20:58:45.316Z,83.50
2022-09-01T21:01:22.610Z,84.10
2022-09-01T21:04:10.745Z,84.10
2022-09-01T21:07:14.959Z,84.50
2022-09-01T21:09:53.503Z,84.60
2022-09-01T21:12:58.767Z,84.50
2022-09-01T21:15:32.293Z,84.50
2022-09-01T21:18:12.104Z,85.20
2022-09-01T21:21:00.528Z,85.40
2022-09-01T21:23:30.989Z,86.20
2022-09-01T21:25:57.807Z,87.20
2022-09-01T21:28:26.406Z,88.10
2022-09-01T21:30:57.545Z,88.40
2022-09-01T21:33:25.374Z,89.00
2022-09-01T21:35:52.097Z,88.60
2022-09-01T21:38:18.773Z,88.90
2022-09-01T21:40:45.578Z,89.00
2022-09-01T21:43:23.120Z,89.60
2022-09-01T21:45:49.868Z,90.20
2022-09-01T21:48:16.503Z,91.20
2022-09-01T21:50:43.246Z,91.10
2022-09-01T21:53:10.075Z,91.60
2022-09-01T21:55:37.564Z,92.70
2022-09-01T21:58:04.268Z,93.40
2022-09-01T22:00:33.514Z,94.70
2022-09-01T22:03:01.676Z,95.40
2022-09-01T22:05:28.980Z,96.80
2022-09-01T22:07:56.069Z,97.70
2022-09-01T22:10:25.909Z,98.90
2022-09-01T22:12:52.644Z,99.90
2022-09-01T22:15:21.073Z,99.90
2022-09-01T22:17:48.022Z,99.90
2022-09-01T22:20:18.362Z,99.90
2022-09-01T22:22:45.772Z,99.90
2022-09-01T22:25:14.701Z,99.90
2022-09-01T22:27:41.389Z,99.90
2022-09-01T22:30:08.396Z,99.90
2022-09-01T22:32:37.734Z,99.90
2022-09-01T22:35:09.420Z,99.90
2022-09-01T22:37:36.313Z,99.90
2022-09-01T22:40:04.215Z,99.90
2022-09-01T22:42:30.973Z,99.90
2022-09-01T22:44:57.616Z,99.90
2022-09-01T22:47:24.226Z,99.90
2022-09-01T22:49:51.002Z,99.90
2022-09-01T22:52:17.757Z,99.90
2022-09-01T22:54:44.639Z,99.90
2022-09-01T22:57:11.949Z,99.90
2022-09-01T22:59:41.768Z,99.90
2022-09-01T23:02:10.153Z,99.90
2022-09-01T23:04:37.739Z,99.90
2022-09-01T23:07:04.699Z,99.90
2022-09-01T23:09:31.322Z,99.90
2022-09-01T23:11:57.940Z,99.90
2022-09-01T23:14:24.741Z,99.90
2022-09-01T23:16:52.584Z,99.90
2022-09-01T23:19:20.524Z,99.90
2022-09-01T23:21:47.820Z,99.90
2022-09-01T23:24:14.883Z,99.90
2022-09-01T23:26:41.729Z,99.90
2022-09-01T23:29:08.506Z,99.90
2022-09-01T23:31:36.930Z,99.90
2022-09-01T23:34:05.902Z,99.90
2022-09-01T23:36:32.829Z,99.90
2022-09-01T23:39:00.540Z,99.90
2022-09-01T23:41:30.871Z,99.90
2022-09-01T23:43:58.786Z,99.90
2022-09-01T23:46:30.862Z,99.90
2022-09-01T23:48:57.649Z,99.90
2022-09-01T23:51:24.557Z,99.90
2022-09-01T23:53:51.704Z,99.90
2022-09-01T23:56:21.188Z,99.90
2022-09-01T23:58:48.803Z,99.90
